Terminal Aerodrome Forecast
Issued by NWS Mobile, AL

Home | Current Version | Previous Version | Text Only | Print | Product List | Glossary On
Versions: 1 2 3 4 5 6 7 8 9 10 11 12 13 14
000
FTUS44 KMOB 091142
TAFMOB
TAF
KMOB 091142Z 0912/1012 36012G19KT P6SM SKC
     FM091500 01014G20KT P6SM FEW250
     FM100000 36006KT P6SM SKC=

USA.gov is the U.S. government's official web portal to all federal, state and local government web resources and services.